createdAt,value
2022-08-18T00:00:10.898Z,5.50
2022-08-18T00:02:58.090Z,8.73
2022-08-18T00:05:30.949Z,8.38
2022-08-18T00:08:01.203Z,12.35
2022-08-18T00:10:30.556Z,5.38
2022-08-18T00:13:01.368Z,7.28
2022-08-18T00:15:30.724Z,6.50
2022-08-18T00:17:59.824Z,5.53
2022-08-18T00:20:29.043Z,7.15
2022-08-18T00:22:58.886Z,8.60
2022-08-18T00:25:28.085Z,7.82
2022-08-18T00:27:57.353Z,10.30
2022-08-18T00:30:26.489Z,6.55
2022-08-18T00:32:58.065Z,5.35
2022-08-18T00:35:28.962Z,4.40
2022-08-18T00:38:01.178Z,4.53
2022-08-18T00:40:40.514Z,3.80
2022-08-18T00:43:14.958Z,4.18
2022-08-18T00:45:45.369Z,3.90
2022-08-18T00:48:15.592Z,4.13
2022-08-18T00:50:55.578Z,3.92
2022-08-18T00:53:40.520Z,3.30
2022-08-18T00:56:14.076Z,3.90
2022-08-18T00:58:48.028Z,3.70
2022-08-18T01:03:54.075Z,4.00
2022-08-18T01:06:30.784Z,14.50
2022-08-18T01:09:00.764Z,11.52
2022-08-18T01:11:30.972Z,14.25
2022-08-18T01:14:00.836Z,15.45
2022-08-18T01:16:56.990Z,16.52
2022-08-18T01:19:47.257Z,16.80
2022-08-18T01:22:50.982Z,5.63
2022-08-18T01:25:41.163Z,3.35
2022-08-18T01:28:10.659Z,4.55
2022-08-18T01:30:57.195Z,3.33
2022-08-18T01:33:38.153Z,3.53
2022-08-18T01:36:22.394Z,4.82
2022-08-18T01:41:30.225Z,3.35
2022-08-18T01:44:02.095Z,3.13
2022-08-18T01:46:34.869Z,3.70
2022-08-18T01:49:05.099Z,2.90
2022-08-18T01:51:40.670Z,3.35
2022-08-18T01:54:16.022Z,3.30
2022-08-18T01:56:45.922Z,3.20
2022-08-18T01:59:15.794Z,2.88
2022-08-18T02:01:52.925Z,3.45
2022-08-18T02:04:37.582Z,3.75
2022-08-18T02:09:40.606Z,4.32
2022-08-18T02:12:11.644Z,3.25
2022-08-18T02:14:44.542Z,3.50
2022-08-18T02:17:15.848Z,2.92
2022-08-18T02:19:47.907Z,3.95
2022-08-18T02:22:21.739Z,3.13
2022-08-18T02:27:20.820Z,3.05
2022-08-18T02:29:50.216Z,3.30
2022-08-18T02:32:19.650Z,3.20
2022-08-18T02:34:49.114Z,3.05
2022-08-18T02:37:18.547Z,4.93
2022-08-18T02:39:48.028Z,4.65
2022-08-18T02:42:17.766Z,3.97
2022-08-18T02:44:47.197Z,5.00
2022-08-18T02:47:16.786Z,5.07
2022-08-18T02:49:46.166Z,4.38
2022-08-18T02:52:15.581Z,7.28
2022-08-18T02:54:45.227Z,7.10
2022-08-18T02:57:14.948Z,6.72
2022-08-18T02:59:47.407Z,6.80
2022-08-18T03:02:17.819Z,6.25
2022-08-18T03:04:48.180Z,3.08
2022-08-18T03:07:17.856Z,2.40
2022-08-18T03:09:47.299Z,2.85
2022-08-18T03:12:16.768Z,2.42
2022-08-18T03:14:47.828Z,2.70
2022-08-18T03:17:17.218Z,2.60
2022-08-18T03:19:47.858Z,2.53
2022-08-18T03:22:27.358Z,2.78
2022-08-18T03:24:59.641Z,2.35
2022-08-18T03:27:29.215Z,3.03
2022-08-18T03:29:59.014Z,3.40
2022-08-18T03:32:28.520Z,2.60
2022-08-18T03:34:57.953Z,5.82
2022-08-18T03:37:27.456Z,3.85
2022-08-18T03:39:56.985Z,2.92
2022-08-18T03:42:26.425Z,3.25
2022-08-18T03:44:55.796Z,2.83
2022-08-18T03:47:25.253Z,2.58
2022-08-18T03:49:55.065Z,3.35
2022-08-18T03:52:24.636Z,2.80
2022-08-18T03:54:55.302Z,2.40
2022-08-18T03:57:24.700Z,3.30
2022-08-18T03:59:55.943Z,2.35
2022-08-18T04:02:25.278Z,6.50
2022-08-18T04:04:54.700Z,2.70
2022-08-18T04:07:24.721Z,3.00
2022-08-18T04:09:54.170Z,2.30
2022-08-18T04:12:23.574Z,2.08
2022-08-18T04:14:54.562Z,2.65
2022-08-18T04:17:27.418Z,3.60
2022-08-18T04:19:58.201Z,3.00
2022-08-18T04:22:28.117Z,3.25
2022-08-18T04:24:58.006Z,3.00
2022-08-18T04:27:27.507Z,3.30
2022-08-18T04:30:00.476Z,3.10
2022-08-18T04:32:32.620Z,2.83
2022-08-18T04:35:02.759Z,3.20
2022-08-18T04:37:38.091Z,7.55
2022-08-18T04:40:12.840Z,4.00
2022-08-18T04:42:43.466Z,4.25
2022-08-18T04:45:14.291Z,4.65
2022-08-18T04:47:44.842Z,2.63
2022-08-18T04:50:14.885Z,4.47
2022-08-18T04:53:03.173Z,3.65
2022-08-18T04:55:32.787Z,3.45
2022-08-18T04:58:02.407Z,3.30
2022-08-18T05:00:31.852Z,2.03
2022-08-18T05:03:01.459Z,2.28
2022-08-18T05:05:30.772Z,3.17
2022-08-18T05:08:00.074Z,2.42
2022-08-18T05:10:29.449Z,1.75
2022-08-18T05:12:58.769Z,1.90
2022-08-18T05:15:28.121Z,3.22
2022-08-18T05:17:57.754Z,2.38
2022-08-18T05:20:27.991Z,2.00
2022-08-18T05:22:58.466Z,1.70
2022-08-18T05:25:27.903Z,1.90
2022-08-18T05:27:57.215Z,2.80
2022-08-18T05:30:26.642Z,2.05
2022-08-18T05:32:57.043Z,2.00
2022-08-18T05:35:33.003Z,1.92
2022-08-18T05:38:09.628Z,1.88
2022-08-18T05:40:39.205Z,1.85
2022-08-18T05:43:10.297Z,2.42
2022-08-18T05:45:42.920Z,1.98
2022-08-18T05:48:12.297Z,1.90
2022-08-18T05:50:42.184Z,1.67
2022-08-18T05:53:21.022Z,1.60
2022-08-18T05:56:24.844Z,3.83
2022-08-18T05:58:58.469Z,1.98
2022-08-18T06:01:42.786Z,2.75
2022-08-18T06:04:32.265Z,1.85
2022-08-18T06:07:06.775Z,3.55
2022-08-18T06:09:44.585Z,1.67
2022-08-18T06:12:40.158Z,2.20
2022-08-18T06:15:48.573Z,1.85
2022-08-18T06:18:33.927Z,1.98
2022-08-18T06:21:38.425Z,1.48
2022-08-18T06:24:32.844Z,2.40
2022-08-18T06:27:24.888Z,2.60
2022-08-18T06:30:06.798Z,1.92
2022-08-18T06:33:03.554Z,2.20
2022-08-18T06:36:04.240Z,1.60
2022-08-18T06:38:53.885Z,2.00
2022-08-18T06:41:42.311Z,1.92
2022-08-18T06:44:15.450Z,2.33
2022-08-18T06:47:10.561Z,1.77
2022-08-18T06:50:06.285Z,1.80
2022-08-18T06:52:39.509Z,1.58
2022-08-18T06:55:18.049Z,1.45
2022-08-18T06:58:02.033Z,1.30
2022-08-18T07:00:37.744Z,1.90
2022-08-18T07:03:10.162Z,1.65
2022-08-18T07:05:56.555Z,1.80
2022-08-18T07:08:35.410Z,1.60
2022-08-18T07:11:16.299Z,1.52
2022-08-18T07:13:58.614Z,1.67
2022-08-18T07:16:57.786Z,1.25
2022-08-18T07:19:31.368Z,1.77
2022-08-18T07:22:19.053Z,1.35
2022-08-18T07:24:51.524Z,1.13
2022-08-18T07:27:42.380Z,2.05
2022-08-18T07:30:16.576Z,2.03
2022-08-18T07:33:02.498Z,2.30
2022-08-18T07:35:59.703Z,2.38
2022-08-18T07:38:44.268Z,3.28
2022-08-18T07:41:23.915Z,1.98
2022-08-18T07:44:12.935Z,1.40
2022-08-18T07:47:06.832Z,1.73
2022-08-18T07:49:46.046Z,1.40
2022-08-18T07:52:36.049Z,1.40
2022-08-18T07:55:36.685Z,1.90
2022-08-18T07:59:03.994Z,2.28
2022-08-18T08:01:51.334Z,1.73
2022-08-18T08:04:42.828Z,1.45
2022-08-18T08:08:02.646Z,2.42
2022-08-18T08:11:07.690Z,2.45
2022-08-18T08:13:55.125Z,2.35
2022-08-18T08:16:45.553Z,3.17
2022-08-18T08:19:36.528Z,2.08
2022-08-18T08:22:12.930Z,1.73
2022-08-18T08:24:47.936Z,1.17
2022-08-18T08:27:20.331Z,1.38
2022-08-18T08:30:06.111Z,1.85
2022-08-18T08:32:39.575Z,2.55
2022-08-18T08:35:48.753Z,1.92
2022-08-18T08:38:40.230Z,2.00
2022-08-18T08:41:29.427Z,1.55
2022-08-18T08:44:05.144Z,1.42
2022-08-18T08:46:46.385Z,1.80
2022-08-18T08:49:28.122Z,1.80
2022-08-18T08:52:22.324Z,1.95
2022-08-18T08:55:01.732Z,1.90
2022-08-18T08:57:47.115Z,1.52
2022-08-18T09:00:16.830Z,1.75
2022-08-18T09:02:57.772Z,1.88
2022-08-18T09:05:42.434Z,1.70
2022-08-18T09:08:48.123Z,1.77
2022-08-18T09:11:28.501Z,1.77
2022-08-18T09:14:03.417Z,1.90
2022-08-18T09:16:49.548Z,1.65
2022-08-18T09:19:32.745Z,1.83
2022-08-18T09:22:06.044Z,1.73
2022-08-18T09:24:52.482Z,1.88
2022-08-18T09:28:10.636Z,1.60
2022-08-18T09:31:09.157Z,2.10
2022-08-18T09:33:47.014Z,1.92
2022-08-18T09:36:54.003Z,2.17
2022-08-18T09:40:10.982Z,1.55
2022-08-18T09:43:09.079Z,2.25
2022-08-18T09:45:58.574Z,1.67
2022-08-18T09:48:42.919Z,1.90
2022-08-18T09:54:20.941Z,2.00
2022-08-18T09:59:49.206Z,2.20
2022-08-18T10:02:33.053Z,1.85
2022-08-18T10:05:18.391Z,1.88
2022-08-18T10:07:58.453Z,1.63
2022-08-18T10:10:59.000Z,1.92
2022-08-18T10:14:14.994Z,3.03
2022-08-18T10:17:23.990Z,1.70
2022-08-18T10:20:23.900Z,1.65
2022-08-18T10:22:57.995Z,1.75
2022-08-18T10:25:33.891Z,1.63
2022-08-18T10:28:06.576Z,2.30
2022-08-18T10:34:00.351Z,4.65
2022-08-18T10:37:25.944Z,1.65
2022-08-18T10:40:21.361Z,2.00
2022-08-18T10:43:45.309Z,2.10
2022-08-18T10:46:25.390Z,2.60
2022-08-18T10:49:13.597Z,3.28
2022-08-18T10:52:21.039Z,2.00
2022-08-18T10:55:11.672Z,2.42
2022-08-18T10:58:01.995Z,2.40
2022-08-18T11:00:49.590Z,2.85
2022-08-18T11:03:51.303Z,2.97
2022-08-18T11:06:27.374Z,3.10
2022-08-18T11:09:01.431Z,5.63
2022-08-18T11:11:53.333Z,6.72
2022-08-18T11:14:54.233Z,5.53
2022-08-18T11:17:49.227Z,3.50
2022-08-18T11:20:21.353Z,2.72
2022-08-18T11:22:57.316Z,3.92
2022-08-18T11:25:36.220Z,3.10
2022-08-18T11:28:15.993Z,2.78
2022-08-18T11:30:53.634Z,2.58
2022-08-18T11:33:25.037Z,2.40
2022-08-18T11:36:02.290Z,3.78
2022-08-18T11:38:33.156Z,3.60
2022-08-18T11:41:21.494Z,2.45
2022-08-18T11:43:58.882Z,2.78
2022-08-18T11:46:42.923Z,2.83
2022-08-18T11:49:24.176Z,2.70
2022-08-18T11:52:03.995Z,2.80
2022-08-18T11:54:50.201Z,3.20
2022-08-18T11:57:33.557Z,4.72
2022-08-18T12:00:43.619Z,4.70
2022-08-18T12:03:42.204Z,5.30
2022-08-18T12:06:34.561Z,4.63
2022-08-18T12:10:07.771Z,3.95
2022-08-18T12:15:33.530Z,4.45
2022-08-18T12:18:18.675Z,4.78
2022-08-18T12:20:54.950Z,3.97
2022-08-18T12:23:24.382Z,3.58
2022-08-18T12:25:53.752Z,3.67
2022-08-18T12:28:23.035Z,3.67
2022-08-18T12:30:57.670Z,5.95
2022-08-18T12:33:34.424Z,5.70
2022-08-18T12:36:16.566Z,5.22
2022-08-18T12:38:52.161Z,5.93
2022-08-18T12:41:25.708Z,5.85
2022-08-18T12:43:59.012Z,4.40
2022-08-18T12:48:58.346Z,5.18
2022-08-18T12:51:30.495Z,3.97
2022-08-18T12:54:00.545Z,4.38
2022-08-18T12:56:32.949Z,3.80
2022-08-18T12:59:06.651Z,4.00
2022-08-18T13:01:37.087Z,3.38
2022-08-18T13:04:12.433Z,5.28
2022-08-18T13:07:00.007Z,4.00
2022-08-18T13:09:53.944Z,4.50
2022-08-18T13:12:27.373Z,4.25
2022-08-18T13:14:57.076Z,4.25
2022-08-18T13:17:29.731Z,4.65
2022-08-18T13:20:13.340Z,4.00
2022-08-18T13:22:44.020Z,3.65
2022-08-18T13:25:32.543Z,4.53
2022-08-18T13:28:07.411Z,5.18
2022-08-18T13:30:38.190Z,5.53
2022-08-18T13:33:35.353Z,8.98
2022-08-18T13:35:57.955Z,8.05
2022-08-18T13:38:28.352Z,9.73
2022-08-18T13:41:01.094Z,12.13
2022-08-18T13:43:34.699Z,11.23
2022-08-18T13:46:09.306Z,12.20
2022-08-18T13:48:41.582Z,10.15
2022-08-18T13:51:15.366Z,7.95
2022-08-18T13:53:57.613Z,9.20
2022-08-18T13:56:34.071Z,7.72
2022-08-18T13:59:06.588Z,8.20
2022-08-18T14:01:44.310Z,8.95
2022-08-18T14:04:20.413Z,8.00
2022-08-18T14:06:57.843Z,7.32
2022-08-18T14:09:37.778Z,5.95
2022-08-18T14:12:22.614Z,5.63
2022-08-18T14:14:57.392Z,5.72
2022-08-18T14:17:28.155Z,3.03
2022-08-18T14:20:21.807Z,6.07
2022-08-18T14:23:37.994Z,5.15
2022-08-18T14:26:31.594Z,4.13
2022-08-18T14:29:05.189Z,3.25
2022-08-18T14:31:35.083Z,2.90
2022-08-18T14:34:04.745Z,3.72
2022-08-18T14:36:34.411Z,3.33
2022-08-18T14:39:05.299Z,3.10
2022-08-18T14:41:40.846Z,2.55
2022-08-18T14:44:14.734Z,3.00
2022-08-18T14:46:54.563Z,2.78
2022-08-18T14:49:29.197Z,3.20
2022-08-18T14:52:03.290Z,4.13
2022-08-18T14:54:39.968Z,3.33
2022-08-18T14:57:16.175Z,3.80
2022-08-18T14:59:45.677Z,2.95
2022-08-18T15:02:14.954Z,3.00
2022-08-18T15:04:55.966Z,2.78
2022-08-18T15:07:27.692Z,2.42
2022-08-18T15:10:15.139Z,2.45
2022-08-18T15:12:46.241Z,3.25
2022-08-18T15:15:18.091Z,2.30
2022-08-18T15:17:50.035Z,3.55
2022-08-18T15:20:29.049Z,3.70
2022-08-18T15:23:24.926Z,4.78
2022-08-18T15:25:59.066Z,2.78
2022-08-18T15:28:28.631Z,3.53
2022-08-18T15:33:50.191Z,2.95
2022-08-18T15:36:28.734Z,3.78
2022-08-18T15:38:59.829Z,2.70
2022-08-18T15:41:44.335Z,5.82
2022-08-18T15:44:15.568Z,3.25
2022-08-18T15:46:51.192Z,3.80
2022-08-18T15:49:22.950Z,9.30
2022-08-18T15:51:52.811Z,2.85
2022-08-18T15:54:22.032Z,3.25
2022-08-18T15:56:58.200Z,3.72
2022-08-18T15:59:34.209Z,3.47
2022-08-18T16:02:12.036Z,2.95
2022-08-18T16:04:48.632Z,3.92
2022-08-18T16:07:27.034Z,2.47
2022-08-18T16:10:08.451Z,2.40
2022-08-18T16:12:37.914Z,3.00
2022-08-18T16:15:21.176Z,2.80
2022-08-18T16:17:53.446Z,3.05
2022-08-18T16:20:25.077Z,2.65
2022-08-18T16:22:55.381Z,2.78
2022-08-18T16:25:25.234Z,3.22
2022-08-18T16:27:55.903Z,3.55
2022-08-18T16:30:27.682Z,2.80
2022-08-18T16:33:03.824Z,2.70
2022-08-18T16:35:34.846Z,2.67
2022-08-18T16:38:10.168Z,2.50
2022-08-18T16:40:41.500Z,2.17
2022-08-18T16:43:11.564Z,2.83
2022-08-18T16:45:43.926Z,2.67
2022-08-18T16:48:16.799Z,3.65
2022-08-18T16:50:47.164Z,2.70
2022-08-18T16:53:16.576Z,3.60
2022-08-18T16:55:46.251Z,2.78
2022-08-18T16:58:33.662Z,5.68
2022-08-18T17:01:21.460Z,5.72
2022-08-18T17:04:13.489Z,2.75
2022-08-18T17:06:47.468Z,2.80
2022-08-18T17:09:18.596Z,2.90
2022-08-18T17:15:25.172Z,4.30
2022-08-18T17:17:54.489Z,3.13
2022-08-18T17:20:24.310Z,4.40
2022-08-18T17:22:57.295Z,4.88
2022-08-18T17:25:28.696Z,5.10
2022-08-18T17:28:03.133Z,3.67
2022-08-18T17:30:43.312Z,3.38
2022-08-18T17:33:17.367Z,3.28
2022-08-18T17:35:48.703Z,3.42
2022-08-18T17:38:41.245Z,2.83
2022-08-18T17:41:12.520Z,2.60
2022-08-18T17:46:41.449Z,2.90
2022-08-18T17:49:17.999Z,2.78
2022-08-18T17:51:57.624Z,2.90
2022-08-18T17:54:53.631Z,2.80
2022-08-18T17:57:32.424Z,2.40
2022-08-18T18:00:02.392Z,2.72
2022-08-18T18:02:34.528Z,2.63
2022-08-18T18:05:07.241Z,2.53
2022-08-18T18:07:55.689Z,2.53
2022-08-18T18:11:05.296Z,2.85
2022-08-18T18:13:35.379Z,2.58
2022-08-18T18:16:30.187Z,2.53
2022-08-18T18:19:07.080Z,2.88
2022-08-18T18:22:00.191Z,2.70
2022-08-18T18:24:34.099Z,3.00
2022-08-18T18:27:03.581Z,2.65
2022-08-18T18:29:38.390Z,2.42
2022-08-18T18:32:25.661Z,2.25
2022-08-18T18:35:06.838Z,2.30
2022-08-18T18:37:47.309Z,2.80
2022-08-18T18:40:37.891Z,2.13
2022-08-18T18:43:26.537Z,2.50
2022-08-18T18:46:06.075Z,2.40
2022-08-18T18:49:02.248Z,2.55
2022-08-18T18:51:40.166Z,2.55
2022-08-18T18:54:50.520Z,3.10
2022-08-18T18:58:05.638Z,2.60
2022-08-18T19:03:12.892Z,2.83
2022-08-18T19:06:14.227Z,2.95
2022-08-18T19:09:14.583Z,2.67
2022-08-18T19:11:53.999Z,4.60
2022-08-18T19:14:35.564Z,2.58
2022-08-18T19:17:37.752Z,2.88
2022-08-18T19:20:24.941Z,2.50
2022-08-18T19:23:31.409Z,2.30
2022-08-18T19:26:08.342Z,2.65
2022-08-18T19:29:12.104Z,2.95
2022-08-18T19:32:16.600Z,3.00
2022-08-18T19:34:51.391Z,3.10
2022-08-18T19:37:55.879Z,2.85
2022-08-18T19:40:48.394Z,3.00
2022-08-18T19:43:49.991Z,2.90
2022-08-18T19:46:19.364Z,2.60
2022-08-18T19:49:10.717Z,2.92
2022-08-18T19:51:45.726Z,2.25
2022-08-18T19:54:45.518Z,3.17
2022-08-18T19:57:28.137Z,2.70
2022-08-18T20:00:23.940Z,2.78
2022-08-18T20:03:11.013Z,2.90
2022-08-18T20:05:54.545Z,3.80
2022-08-18T20:08:52.391Z,4.20
2022-08-18T20:11:42.178Z,2.65
2022-08-18T20:14:19.980Z,2.60
2022-08-18T20:17:13.916Z,2.33
2022-08-18T20:19:45.700Z,3.03
2022-08-18T20:22:24.818Z,2.70
2022-08-18T20:25:05.774Z,2.67
2022-08-18T20:27:44.463Z,2.58
2022-08-18T20:30:49.032Z,2.60
2022-08-18T20:33:21.083Z,2.80
2022-08-18T20:36:12.576Z,2.65
2022-08-18T20:39:02.333Z,3.03
2022-08-18T20:41:39.145Z,3.42
2022-08-18T20:44:38.448Z,2.85
2022-08-18T20:47:27.372Z,2.97
2022-08-18T20:50:34.695Z,2.90
2022-08-18T20:53:49.869Z,3.08
2022-08-18T20:56:43.580Z,3.05
2022-08-18T20:59:21.230Z,3.30
2022-08-18T21:02:02.567Z,3.83
2022-08-18T21:04:50.475Z,3.17
2022-08-18T21:07:37.116Z,3.30
2022-08-18T21:10:28.727Z,4.03
2022-08-18T21:13:04.146Z,3.05
2022-08-18T21:15:38.417Z,3.80
2022-08-18T21:18:28.314Z,3.22
2022-08-18T21:20:59.722Z,3.22
2022-08-18T21:23:31.757Z,3.60
2022-08-18T21:26:06.280Z,3.35
2022-08-18T21:28:39.018Z,3.38
2022-08-18T21:31:41.860Z,3.67
2022-08-18T21:34:36.651Z,4.15
2022-08-18T21:37:11.553Z,3.63
2022-08-18T21:40:09.893Z,3.58
2022-08-18T21:42:47.155Z,3.60
2022-08-18T21:45:20.323Z,3.50
2022-08-18T21:47:59.356Z,3.53
2022-08-18T21:50:32.001Z,3.28
2022-08-18T21:53:02.540Z,2.80
2022-08-18T21:55:43.532Z,3.85
2022-08-18T21:58:17.731Z,3.80
2022-08-18T22:01:09.607Z,4.25
2022-08-18T22:03:52.313Z,4.65
2022-08-18T22:06:38.761Z,3.38
2022-08-18T22:09:29.336Z,4.40
2022-08-18T22:12:44.158Z,3.25
2022-08-18T22:15:20.848Z,3.80
2022-08-18T22:18:06.578Z,4.05
2022-08-18T22:20:44.914Z,4.22
2022-08-18T22:23:35.469Z,4.40
2022-08-18T22:26:19.245Z,5.22
2022-08-18T22:28:59.775Z,5.13
2022-08-18T22:31:34.265Z,4.63
2022-08-18T22:34:08.433Z,4.22
2022-08-18T22:36:48.196Z,4.00
2022-08-18T22:39:47.242Z,3.95
2022-08-18T22:44:46.710Z,3.42
2022-08-18T22:47:16.153Z,4.30
2022-08-18T22:49:46.336Z,3.88
2022-08-18T22:52:29.811Z,4.75
2022-08-18T22:55:06.680Z,4.50
2022-08-18T22:57:38.909Z,4.35
2022-08-18T23:00:18.622Z,4.80
2022-08-18T23:02:49.097Z,4.20
2022-08-18T23:05:18.237Z,4.35
2022-08-18T23:07:47.738Z,5.38
2022-08-18T23:10:17.822Z,5.07
2022-08-18T23:12:48.592Z,5.90
2022-08-18T23:15:19.874Z,5.53
2022-08-18T23:17:49.211Z,6.50
2022-08-18T23:20:19.635Z,5.47
2022-08-18T23:22:49.632Z,8.48
2022-08-18T23:25:19.073Z,9.52
2022-08-18T23:27:48.196Z,9.45
2022-08-18T23:30:17.301Z,10.18
2022-08-18T23:32:47.906Z,9.70
2022-08-18T23:35:17.322Z,9.07
2022-08-18T23:37:47.844Z,7.00
2022-08-18T23:40:18.119Z,6.40
2022-08-18T23:42:50.063Z,5.75
2022-08-18T23:45:20.596Z,6.10
2022-08-18T23:47:49.758Z,4.68
2022-08-18T23:50:18.877Z,15.63
2022-08-18T23:52:48.180Z,6.18
2022-08-18T23:55:18.788Z,7.13
2022-08-18T23:57:47.852Z,5.95
